Forester — E5U2629 — position and weather

sailwx.info

Track history (hours):
 
Tides and Currents Weather Stations Pressure Air Temp Water Temp Dewpoint Dewpoint Depression Visibility Wind Speed Wind Dir Waves Ship Positions

Forester

Last reported at 2017-Oct-22 13:00 UTC. Time now 2017-Oct-22 13:30 UTC.
Position N 28°29' W 016°13'.

Length 89 m; draft 6.3 m.

Type: Cargo ship. MMSI: 518682000.

Date/timePositionNaut miles runAvg speedWind from/ knotsBaromVisibWave heightAir tempDewpointWater temp
2017-Oct-22 13:00N 28°29' W 016°13'0 0.0
2017-Oct-22 12:27N 28°29' W 016°13'0 0.1
2017-Oct-22 11:57N 28°29' W 016°13'0 0.0
2017-Oct-22 11:03N 28°29' W 016°13'0 0.1
2017-Oct-22 10:57N 28°29' W 016°13'0 0.0
2017-Oct-22 10:27N 28°29' W 016°13'0 0.0
2017-Oct-22 09:42N 28°29' W 016°13'0 0.0
2017-Oct-22 09:24N 28°29' W 016°13'0 0.0
2017-Oct-22 08:54N 28°29' W 016°13'0 0.0
2017-Oct-22 08:21N 28°29' W 016°13'0 0.0
2017-Oct-22 07:54N 28°29' W 016°13'0 0.0
2017-Oct-22 07:24N 28°29' W 016°13'0 0.0
2017-Oct-22 06:54N 28°29' W 016°13'0 0.0
2017-Oct-22 06:15N 28°29' W 016°13'0 0.0
2017-Oct-22 05:54N 28°29' W 016°13'0 0.0
2017-Oct-22 05:24N 28°29' W 016°13'0 0.0
2017-Oct-22 02:15N 28°29' W 016°13'0 0.0
2017-Oct-21 11:15N 28°29' W 016°13'0 0.0
2017-Oct-21 10:54N 28°29' W 016°13'0 0.0
2017-Oct-21 05:48N 28°29' W 016°13'0 0.0
2017-Oct-20 23:11N 28°29' W 016°13'0 0.0
2017-Oct-20 21:20N 28°29' W 016°13'0 0.0
2017-Oct-20 16:59N 28°29' W 016°13'0 0.0
2017-Oct-20 16:26N 28°29' W 016°13'0 0.0
2017-Oct-20 14:35N 28°29' W 016°13'0 0.0
2017-Oct-20 12:53N 28°29' W 016°13'0 0.0
2017-Oct-20 11:23N 28°29' W 016°13'0 0.0
2017-Oct-20 11:00N 28°29' W 016°13'0 0.0
2017-Oct-19 06:55N 28°29' W 016°13'0 0.0
2017-Oct-19 06:30N 28°29' W 016°13'0 0.0
2017-Oct-19 05:59N 28°29' W 016°13'0 0.0
2017-Oct-19 05:30N 28°29' W 016°13'0 0.0
2017-Oct-19 04:57N 28°29' W 016°13'0 0.0
2017-Oct-19 04:30N 28°29' W 016°13'0 0.0
2017-Oct-19 04:00N 28°29' W 016°13'0 0.0
2017-Oct-19 03:30N 28°29' W 016°13'0 0.0
2017-Oct-19 02:59N 28°29' W 016°13'0 0.0
2017-Oct-19 01:35N 28°29' W 016°13'0 0.0
2017-Oct-19 01:16N 28°29' W 016°13'0 0.0
2017-Oct-19 00:56N 28°29' W 016°13'1 1.6
2017-Oct-19 00:24N 28°28' W 016°13'2 5.5
2017-Oct-18 23:57N 28°28' W 016°10'3 5.3
2017-Oct-18 23:24N 28°28' W 016°07'2 5.3
2017-Oct-18 22:59N 28°28' W 016°04'3 5.2
2017-Oct-18 22:30N 28°28' W 016°02'3 5.2
2017-Oct-18 22:00N 28°28' W 015°59'3 5.2
2017-Oct-18 21:30N 28°29' W 015°56'3 5.7
2017-Oct-18 21:00N 28°31' W 015°53'3 5.8
2017-Oct-18 20:30N 28°33' W 015°51'3 5.7
2017-Oct-18 20:00N 28°35' W 015°49'3 5.7
2017-Oct-18 19:30N 28°37' W 015°47'3 5.8
2017-Oct-18 19:00N 28°39' W 015°45'3 5.8
2017-Oct-18 18:30N 28°42' W 015°44'3 5.7
2017-Oct-18 18:00N 28°45' W 015°42'3 5.6
2017-Oct-18 17:29N 28°47' W 015°41'  
2017-Oct-15 04:52N 36°18' W 012°30'14 5.7
2017-Oct-15 02:25N 36°30' W 012°23'3 5.7
2017-Oct-15 01:59N 36°33' W 012°21'7 5.3
2017-Oct-15 00:36N 36°39' W 012°18'1 5.3
2017-Oct-15 00:23N 36°40' W 012°17'3 5.3
2017-Oct-14 23:50N 36°43' W 012°16'15 5.8
2017-Oct-14 21:12N 36°57' W 012°09'7 5.8
2017-Oct-14 20:02N 37°04' W 012°06'1 5.5
2017-Oct-14 19:53N 37°04' W 012°05'2 5.6
2017-Oct-14 19:28N 37°07' W 012°04'3 5.6
2017-Oct-14 19:01N 37°09' W 012°03'3 5.7
2017-Oct-14 18:30N 37°11' W 012°01'3 5.8
2017-Oct-14 18:00N 37°14' W 011°60'3 5.5
2017-Oct-14 17:30N 37°16' W 011°58'3 5.4
2017-Oct-14 17:01N 37°19' W 011°56'3 5.3
2017-Oct-14 16:30N 37°21' W 011°54'3 5.1
2017-Oct-14 16:00N 37°23' W 011°53'3 5.3
2017-Oct-14 15:30N 37°25' W 011°51'3 5.2
2017-Oct-14 15:00N 37°28' W 011°50'3 5.2
2017-Oct-14 14:30N 37°30' W 011°49'3 5.5
2017-Oct-14 14:00N 37°33' W 011°48'3 5.6
2017-Oct-14 13:30N 37°36' W 011°48'3 5.4
2017-Oct-14 13:00N 37°38' W 011°47'3 5.6
2017-Oct-14 12:30N 37°41' W 011°47'3 5.6
2017-Oct-14 12:00N 37°44' W 011°46'7 5.6
2017-Oct-14 10:47N 37°51' W 011°44'2 5.4
2017-Oct-14 10:27N 37°52' W 011°43'2 5.2
2017-Oct-14 10:00N 37°55' W 011°43'3 5.2
2017-Oct-14 09:30N 37°57' W 011°42'3 5.3
2017-Oct-14 09:00N 37°60' W 011°41'3 5.3
2017-Oct-14 08:31N 38°02' W 011°40'3 5.3
2017-Oct-14 08:00N 38°05' W 011°39'3 5.3
2017-Oct-14 07:30N 38°07' W 011°38'3 5.5
2017-Oct-14 07:01N 38°10' W 011°36'3 5.6
2017-Oct-14 06:30N 38°12' W 011°35'3 5.5
2017-Oct-14 06:00N 38°15' W 011°34'3 5.3
2017-Oct-14 05:30N 38°18' W 011°33'3 5.5
2017-Oct-14 05:00N 38°20' W 011°32'3 5.7
2017-Oct-14 04:30N 38°23' W 011°31'3 5.8
2017-Oct-14 04:00N 38°26' W 011°29'3 5.7
2017-Oct-14 03:30N 38°28' W 011°28'3 5.6
2017-Oct-14 03:00N 38°31' W 011°27'3 5.5
2017-Oct-14 02:30N 38°33' W 011°26'3 5.6
2017-Oct-14 02:00N 38°36' W 011°25'3 5.5
2017-Oct-14 01:30N 38°39' W 011°23'3 5.7
2017-Oct-14 01:00N 38°41' W 011°22'3 5.8
2017-Oct-14 00:30N 38°44' W 011°21'3 5.7
2017-Oct-13 23:59N 38°47' W 011°19'3 5.8
2017-Oct-13 23:30N 38°49' W 011°18'3 5.8
2017-Oct-13 23:00N 38°52' W 011°17'3 5.7
2017-Oct-13 22:24N 38°55' W 011°15'2 5.9
2017-Oct-13 22:00N 38°58' W 011°15'3 5.9
2017-Oct-13 21:30N 39°01' W 011°14'3 5.5
2017-Oct-13 21:00N 39°03' W 011°13'3 5.3
2017-Oct-13 20:30N 39°06' W 011°12'3 5.5
2017-Oct-13 20:00N 39°08' W 011°10'3 5.6
2017-Oct-13 19:28N 39°11' W 011°09'3 5.7
2017-Oct-13 18:55N 39°14' W 011°08'2 5.9
2017-Oct-13 18:30N 39°16' W 011°07'3 5.9
2017-Oct-13 18:01N 39°19' W 011°06'3 5.9
2017-Oct-13 17:30N 39°22' W 011°04'5 5.9
2017-Oct-13 16:44N 39°26' W 011°01'1 5.7
2017-Oct-13 16:30N 39°27' W 011°01'3 6.0
2017-Oct-13 15:59N 39°30' W 010°59'3 6.1
2017-Oct-13 15:30N 39°33' W 010°57'3 5.9
2017-Oct-13 14:59N 39°35' W 010°55'3 5.8
2017-Oct-13 14:30N 39°38' W 010°54'3 5.8
2017-Oct-13 13:59N 39°41' W 010°53'11 5.9
2017-Oct-13 12:03N 39°51' W 010°47'7 6.0
2017-Oct-13 10:56N 39°58' W 010°44'26 5.9
2017-Oct-13 06:27N 40°23' W 010°34'  
Track history (hours):
 
Tides and Currents Weather Stations Pressure Air Temp Water Temp Dewpoint Dewpoint Depression Visibility Wind Speed Wind Dir Waves Ship Positions

Forester

Last reported at 2017-Oct-22 13:00 UTC. Time now 2017-Oct-22 13:30 UTC.
Position N 28°29' W 016°13'.

Length 89 m; draft 6.3 m.

Type: Cargo ship. MMSI: 518682000.

Date/timePositionNaut miles runAvg speedWind from/ knotsBaromVisibWave heightAir tempDewpointWater temp
2017-Oct-22 13:00N 28°29' W 016°13'0 0.0
2017-Oct-22 12:27N 28°29' W 016°13'0 0.1
2017-Oct-22 11:57N 28°29' W 016°13'0 0.0
2017-Oct-22 11:03N 28°29' W 016°13'0 0.1
2017-Oct-22 10:57N 28°29' W 016°13'0 0.0
2017-Oct-22 10:27N 28°29' W 016°13'0 0.0
2017-Oct-22 09:42N 28°29' W 016°13'0 0.0
2017-Oct-22 09:24N 28°29' W 016°13'0 0.0
2017-Oct-22 08:54N 28°29' W 016°13'0 0.0
2017-Oct-22 08:21N 28°29' W 016°13'0 0.0
2017-Oct-22 07:54N 28°29' W 016°13'0 0.0
2017-Oct-22 07:24N 28°29' W 016°13'0 0.0
2017-Oct-22 06:54N 28°29' W 016°13'0 0.0
2017-Oct-22 06:15N 28°29' W 016°13'0 0.0
2017-Oct-22 05:54N 28°29' W 016°13'0 0.0
2017-Oct-22 05:24N 28°29' W 016°13'0 0.0
2017-Oct-22 02:15N 28°29' W 016°13'0 0.0
2017-Oct-21 11:15N 28°29' W 016°13'0 0.0
2017-Oct-21 10:54N 28°29' W 016°13'0 0.0
2017-Oct-21 05:48N 28°29' W 016°13'0 0.0
2017-Oct-20 23:11N 28°29' W 016°13'0 0.0
2017-Oct-20 21:20N 28°29' W 016°13'0 0.0
2017-Oct-20 16:59N 28°29' W 016°13'0 0.0
2017-Oct-20 16:26N 28°29' W 016°13'0 0.0
2017-Oct-20 14:35N 28°29' W 016°13'0 0.0
2017-Oct-20 12:53N 28°29' W 016°13'0 0.0
2017-Oct-20 11:23N 28°29' W 016°13'0 0.0
2017-Oct-20 11:00N 28°29' W 016°13'0 0.0
2017-Oct-19 06:55N 28°29' W 016°13'0 0.0
2017-Oct-19 06:30N 28°29' W 016°13'0 0.0
2017-Oct-19 05:59N 28°29' W 016°13'0 0.0
2017-Oct-19 05:30N 28°29' W 016°13'0 0.0
2017-Oct-19 04:57N 28°29' W 016°13'0 0.0
2017-Oct-19 04:30N 28°29' W 016°13'0 0.0
2017-Oct-19 04:00N 28°29' W 016°13'0 0.0
2017-Oct-19 03:30N 28°29' W 016°13'0 0.0
2017-Oct-19 02:59N 28°29' W 016°13'0 0.0
2017-Oct-19 01:35N 28°29' W 016°13'0 0.0
2017-Oct-19 01:16N 28°29' W 016°13'0 0.0
2017-Oct-19 00:56N 28°29' W 016°13'1 1.6
2017-Oct-19 00:24N 28°28' W 016°13'2 5.5
2017-Oct-18 23:57N 28°28' W 016°10'3 5.3
2017-Oct-18 23:24N 28°28' W 016°07'2 5.3
2017-Oct-18 22:59N 28°28' W 016°04'3 5.2
2017-Oct-18 22:30N 28°28' W 016°02'3 5.2
2017-Oct-18 22:00N 28°28' W 015°59'3 5.2
2017-Oct-18 21:30N 28°29' W 015°56'3 5.7
2017-Oct-18 21:00N 28°31' W 015°53'3 5.8
2017-Oct-18 20:30N 28°33' W 015°51'3 5.7
2017-Oct-18 20:00N 28°35' W 015°49'3 5.7
2017-Oct-18 19:30N 28°37' W 015°47'3 5.8
2017-Oct-18 19:00N 28°39' W 015°45'3 5.8
2017-Oct-18 18:30N 28°42' W 015°44'3 5.7
2017-Oct-18 18:00N 28°45' W 015°42'3 5.6
2017-Oct-18 17:29N 28°47' W 015°41'  
2017-Oct-15 04:52N 36°18' W 012°30'14 5.7
2017-Oct-15 02:25N 36°30' W 012°23'3 5.7
2017-Oct-15 01:59N 36°33' W 012°21'7 5.3
2017-Oct-15 00:36N 36°39' W 012°18'1 5.3
2017-Oct-15 00:23N 36°40' W 012°17'3 5.3
2017-Oct-14 23:50N 36°43' W 012°16'15 5.8
2017-Oct-14 21:12N 36°57' W 012°09'7 5.8
2017-Oct-14 20:02N 37°04' W 012°06'1 5.5
2017-Oct-14 19:53N 37°04' W 012°05'2 5.6
2017-Oct-14 19:28N 37°07' W 012°04'3 5.6
2017-Oct-14 19:01N 37°09' W 012°03'3 5.7
2017-Oct-14 18:30N 37°11' W 012°01'3 5.8
2017-Oct-14 18:00N 37°14' W 011°60'3 5.5
2017-Oct-14 17:30N 37°16' W 011°58'3 5.4
2017-Oct-14 17:01N 37°19' W 011°56'3 5.3
2017-Oct-14 16:30N 37°21' W 011°54'3 5.1
2017-Oct-14 16:00N 37°23' W 011°53'3 5.3
2017-Oct-14 15:30N 37°25' W 011°51'3 5.2
2017-Oct-14 15:00N 37°28' W 011°50'3 5.2
2017-Oct-14 14:30N 37°30' W 011°49'3 5.5
2017-Oct-14 14:00N 37°33' W 011°48'3 5.6
2017-Oct-14 13:30N 37°36' W 011°48'3 5.4
2017-Oct-14 13:00N 37°38' W 011°47'3 5.6
2017-Oct-14 12:30N 37°41' W 011°47'3 5.6
2017-Oct-14 12:00N 37°44' W 011°46'7 5.6
2017-Oct-14 10:47N 37°51' W 011°44'2 5.4
2017-Oct-14 10:27N 37°52' W 011°43'2 5.2
2017-Oct-14 10:00N 37°55' W 011°43'3 5.2
2017-Oct-14 09:30N 37°57' W 011°42'3 5.3
2017-Oct-14 09:00N 37°60' W 011°41'3 5.3
2017-Oct-14 08:31N 38°02' W 011°40'3 5.3
2017-Oct-14 08:00N 38°05' W 011°39'3 5.3
2017-Oct-14 07:30N 38°07' W 011°38'3 5.5
2017-Oct-14 07:01N 38°10' W 011°36'3 5.6
2017-Oct-14 06:30N 38°12' W 011°35'3 5.5
2017-Oct-14 06:00N 38°15' W 011°34'3 5.3
2017-Oct-14 05:30N 38°18' W 011°33'3 5.5
2017-Oct-14 05:00N 38°20' W 011°32'3 5.7
2017-Oct-14 04:30N 38°23' W 011°31'3 5.8
2017-Oct-14 04:00N 38°26' W 011°29'3 5.7
2017-Oct-14 03:30N 38°28' W 011°28'3 5.6
2017-Oct-14 03:00N 38°31' W 011°27'3 5.5
2017-Oct-14 02:30N 38°33' W 011°26'3 5.6
2017-Oct-14 02:00N 38°36' W 011°25'3 5.5
2017-Oct-14 01:30N 38°39' W 011°23'3 5.7
2017-Oct-14 01:00N 38°41' W 011°22'3 5.8
2017-Oct-14 00:30N 38°44' W 011°21'3 5.7
2017-Oct-13 23:59N 38°47' W 011°19'3 5.8
2017-Oct-13 23:30N 38°49' W 011°18'3 5.8
2017-Oct-13 23:00N 38°52' W 011°17'3 5.7
2017-Oct-13 22:24N 38°55' W 011°15'2 5.9
2017-Oct-13 22:00N 38°58' W 011°15'3 5.9
2017-Oct-13 21:30N 39°01' W 011°14'3 5.5
2017-Oct-13 21:00N 39°03' W 011°13'3 5.3
2017-Oct-13 20:30N 39°06' W 011°12'3 5.5
2017-Oct-13 20:00N 39°08' W 011°10'3 5.6
2017-Oct-13 19:28N 39°11' W 011°09'3 5.7
2017-Oct-13 18:55N 39°14' W 011°08'2 5.9
2017-Oct-13 18:30N 39°16' W 011°07'3 5.9
2017-Oct-13 18:01N 39°19' W 011°06'3 5.9
2017-Oct-13 17:30N 39°22' W 011°04'5 5.9
2017-Oct-13 16:44N 39°26' W 011°01'1 5.7
2017-Oct-13 16:30N 39°27' W 011°01'3 6.0
2017-Oct-13 15:59N 39°30' W 010°59'3 6.1
2017-Oct-13 15:30N 39°33' W 010°57'3 5.9
2017-Oct-13 14:59N 39°35' W 010°55'3 5.8
2017-Oct-13 14:30N 39°38' W 010°54'3 5.8
2017-Oct-13 13:59N 39°41' W 010°53'11 5.9
2017-Oct-13 12:03N 39°51' W 010°47'7 6.0
2017-Oct-13 10:56N 39°58' W 010°44'26 5.9
2017-Oct-13 06:27N 40°23' W 010°34'  

Dump ship's entire track history